Linwood, Kansas
Current Conditions -  °F | °C
As of 6:52 PM on Monday 26 Jan 2015 (Local Time) from KLWC Reporting Station
Clear Clear  
Wind Chill: 44°   Ceiling: Unl
Heat Index: 44°   Visibility: 9mi
Dew Point: 30°   Wind: 0mph
Humidity: 58%   Direction: NA
Pressure: 30"   Gusts: NA
Location:  39°N, 95.04°W
Report Text: KLWC 270052Z AUTO 00000KT 9SM CLR 07/M01 A3000 RMK AO2 SLP165 T00671011
Loading
Personal Weather Stations






























Interactive Weather Map New forecast layout! Learn more

10-Day Weather Forecast

Advertisements
Track Severe Weather on mobile